sensor_id;sensor_type;location;lat;lon;timestamp;P1;durP1;ratioP1;P2;durP2;ratioP2
8088;SDS011;57635;49.194;12.104;2023-07-13T00:02:18;7.97;;;7.23;;
8088;SDS011;57635;49.194;12.104;2023-07-13T00:04:46;8.43;;;7.17;;
8088;SDS011;57635;49.194;12.104;2023-07-13T00:07:15;7.33;;;6.63;;
8088;SDS011;57635;49.194;12.104;2023-07-13T00:09:46;8.73;;;7.93;;
8088;SDS011;57635;49.194;12.104;2023-07-13T00:12:24;7.73;;;7.00;;
8088;SDS011;57635;49.194;12.104;2023-07-13T00:14:52;7.07;;;6.43;;
8088;SDS011;57635;49.194;12.104;2023-07-13T00:17:20;6.83;;;6.30;;
8088;SDS011;57635;49.194;12.104;2023-07-13T00:19:48;7.33;;;6.60;;
8088;SDS011;57635;49.194;12.104;2023-07-13T00:22:17;6.40;;;6.00;;
8088;SDS011;57635;49.194;12.104;2023-07-13T00:24:45;7.87;;;7.10;;
8088;SDS011;57635;49.194;12.104;2023-07-13T00:27:14;6.77;;;6.00;;
8088;SDS011;57635;49.194;12.104;2023-07-13T00:29:42;7.27;;;6.67;;
8088;SDS011;57635;49.194;12.104;2023-07-13T00:32:10;9.63;;;6.47;;
8088;SDS011;57635;49.194;12.104;2023-07-13T00:34:38;6.83;;;6.23;;
8088;SDS011;57635;49.194;12.104;2023-07-13T00:37:06;7.40;;;6.47;;
8088;SDS011;57635;49.194;12.104;2023-07-13T00:39:36;7.13;;;6.60;;
8088;SDS011;57635;49.194;12.104;2023-07-13T00:42:03;9.87;;;7.23;;
8088;SDS011;57635;49.194;12.104;2023-07-13T00:44:31;7.37;;;6.67;;
8088;SDS011;57635;49.194;12.104;2023-07-13T00:46:59;8.17;;;6.30;;
8088;SDS011;57635;49.194;12.104;2023-07-13T00:49:28;8.90;;;6.23;;
8088;SDS011;57635;49.194;12.104;2023-07-13T00:51:58;6.70;;;6.07;;
8088;SDS011;57635;49.194;12.104;2023-07-13T00:54:29;8.70;;;7.17;;
8088;SDS011;57635;49.194;12.104;2023-07-13T00:57:00;7.73;;;6.53;;
8088;SDS011;57635;49.194;12.104;2023-07-13T00:59:30;8.27;;;5.67;;
8088;SDS011;57635;49.194;12.104;2023-07-13T01:01:58;7.77;;;6.90;;
8088;SDS011;57635;49.194;12.104;2023-07-13T01:04:26;7.60;;;6.63;;
8088;SDS011;57635;49.194;12.104;2023-07-13T01:06:54;6.43;;;5.90;;
8088;SDS011;57635;49.194;12.104;2023-07-13T01:09:22;8.50;;;6.73;;
8088;SDS011;57635;49.194;12.104;2023-07-13T01:11:50;8.33;;;6.73;;
8088;SDS011;57635;49.194;12.104;2023-07-13T01:14:19;10.20;;;6.43;;
8088;SDS011;57635;49.194;12.104;2023-07-13T01:16:47;7.20;;;6.30;;
8088;SDS011;57635;49.194;12.104;2023-07-13T01:19:18;8.03;;;6.30;;
8088;SDS011;57635;49.194;12.104;2023-07-13T01:21:53;6.73;;;6.13;;
8088;SDS011;57635;49.194;12.104;2023-07-13T01:24:20;6.23;;;5.63;;
8088;SDS011;57635;49.194;12.104;2023-07-13T01:26:48;7.30;;;5.70;;
8088;SDS011;57635;49.194;12.104;2023-07-13T01:29:15;7.97;;;6.33;;
8088;SDS011;57635;49.194;12.104;2023-07-13T01:31:43;6.57;;;6.07;;
8088;SDS011;57635;49.194;12.104;2023-07-13T01:34:11;7.13;;;6.37;;
8088;SDS011;57635;49.194;12.104;2023-07-13T01:36:39;6.80;;;6.00;;
8088;SDS011;57635;49.194;12.104;2023-07-13T01:39:08;7.60;;;5.93;;
8088;SDS011;57635;49.194;12.104;2023-07-13T01:41:36;6.63;;;6.10;;
8088;SDS011;57635;49.194;12.104;2023-07-13T01:44:04;6.53;;;5.80;;
8088;SDS011;57635;49.194;12.104;2023-07-13T01:46:31;6.90;;;6.00;;
8088;SDS011;57635;49.194;12.104;2023-07-13T01:48:59;7.30;;;6.10;;
8088;SDS011;57635;49.194;12.104;2023-07-13T01:51:27;6.60;;;6.00;;
8088;SDS011;57635;49.194;12.104;2023-07-13T01:53:54;8.57;;;5.87;;
8088;SDS011;57635;49.194;12.104;2023-07-13T01:56:23;6.90;;;5.93;;
8088;SDS011;57635;49.194;12.104;2023-07-13T01:58:51;10.77;;;5.63;;
8088;SDS011;57635;49.194;12.104;2023-07-13T02:01:19;9.23;;;6.23;;
8088;SDS011;57635;49.194;12.104;2023-07-13T02:03:46;8.50;;;6.17;;
8088;SDS011;57635;49.194;12.104;2023-07-13T02:06:14;7.47;;;6.13;;
8088;SDS011;57635;49.194;12.104;2023-07-13T02:08:42;6.47;;;5.63;;
8088;SDS011;57635;49.194;12.104;2023-07-13T02:11:09;8.67;;;6.50;;
8088;SDS011;57635;49.194;12.104;2023-07-13T02:13:38;8.07;;;6.50;;
8088;SDS011;57635;49.194;12.104;2023-07-13T02:16:06;6.97;;;6.30;;
8088;SDS011;57635;49.194;12.104;2023-07-13T02:18:34;10.90;;;5.90;;
8088;SDS011;57635;49.194;12.104;2023-07-13T02:21:02;10.77;;;6.00;;
8088;SDS011;57635;49.194;12.104;2023-07-13T02:23:30;6.97;;;6.23;;
8088;SDS011;57635;49.194;12.104;2023-07-13T02:25:58;10.20;;;6.63;;
8088;SDS011;57635;49.194;12.104;2023-07-13T02:28:28;9.53;;;6.23;;
8088;SDS011;57635;49.194;12.104;2023-07-13T02:31:04;6.73;;;6.13;;
8088;SDS011;57635;49.194;12.104;2023-07-13T02:33:33;10.97;;;6.53;;
8088;SDS011;57635;49.194;12.104;2023-07-13T02:36:00;10.60;;;6.50;;
8088;SDS011;57635;49.194;12.104;2023-07-13T02:38:28;7.30;;;6.60;;
8088;SDS011;57635;49.194;12.104;2023-07-13T02:40:56;7.17;;;6.47;;
8088;SDS011;57635;49.194;12.104;2023-07-13T02:43:23;9.60;;;5.83;;
8088;SDS011;57635;49.194;12.104;2023-07-13T02:45:51;7.70;;;6.23;;
8088;SDS011;57635;49.194;12.104;2023-07-13T02:48:20;7.23;;;6.53;;
8088;SDS011;57635;49.194;12.104;2023-07-13T02:50:47;7.17;;;6.57;;
8088;SDS011;57635;49.194;12.104;2023-07-13T02:53:15;7.80;;;6.47;;
8088;SDS011;57635;49.194;12.104;2023-07-13T02:55:42;7.57;;;6.87;;
8088;SDS011;57635;49.194;12.104;2023-07-13T02:58:13;8.67;;;6.73;;
8088;SDS011;57635;49.194;12.104;2023-07-13T03:00:43;7.90;;;6.40;;
8088;SDS011;57635;49.194;12.104;2023-07-13T03:03:12;7.77;;;6.67;;
8088;SDS011;57635;49.194;12.104;2023-07-13T03:05:42;6.97;;;6.37;;
8088;SDS011;57635;49.194;12.104;2023-07-13T03:08:17;7.70;;;6.60;;
8088;SDS011;57635;49.194;12.104;2023-07-13T03:10:45;7.23;;;6.53;;
8088;SDS011;57635;49.194;12.104;2023-07-13T03:13:12;7.93;;;6.40;;
8088;SDS011;57635;49.194;12.104;2023-07-13T03:15:40;7.80;;;7.20;;
8088;SDS011;57635;49.194;12.104;2023-07-13T03:18:08;10.10;;;6.60;;
8088;SDS011;57635;49.194;12.104;2023-07-13T03:20:35;7.10;;;6.47;;
8088;SDS011;57635;49.194;12.104;2023-07-13T03:23:04;7.60;;;6.90;;
8088;SDS011;57635;49.194;12.104;2023-07-13T03:25:32;7.40;;;6.73;;
8088;SDS011;57635;49.194;12.104;2023-07-13T03:27:59;9.30;;;6.70;;
8088;SDS011;57635;49.194;12.104;2023-07-13T03:30:27;12.40;;;6.63;;
8088;SDS011;57635;49.194;12.104;2023-07-13T03:32:54;10.87;;;6.83;;
8088;SDS011;57635;49.194;12.104;2023-07-13T03:35:22;10.27;;;6.57;;
8088;SDS011;57635;49.194;12.104;2023-07-13T03:37:50;8.40;;;7.30;;
8088;SDS011;57635;49.194;12.104;2023-07-13T03:40:19;10.27;;;7.20;;
8088;SDS011;57635;49.194;12.104;2023-07-13T03:42:47;7.23;;;6.63;;
8088;SDS011;57635;49.194;12.104;2023-07-13T03:45:14;7.57;;;6.93;;
8088;SDS011;57635;49.194;12.104;2023-07-13T03:47:42;10.00;;;8.50;;
8088;SDS011;57635;49.194;12.104;2023-07-13T03:50:10;7.20;;;6.50;;
8088;SDS011;57635;49.194;12.104;2023-07-13T03:52:37;7.87;;;7.13;;
8088;SDS011;57635;49.194;12.104;2023-07-13T03:55:05;12.83;;;7.80;;
8088;SDS011;57635;49.194;12.104;2023-07-13T03:57:35;9.10;;;8.00;;
8088;SDS011;57635;49.194;12.104;2023-07-13T04:00:06;8.83;;;7.83;;
8088;SDS011;57635;49.194;12.104;2023-07-13T04:02:35;10.10;;;7.13;;
8088;SDS011;57635;49.194;12.104;2023-07-13T04:05:03;11.67;;;7.70;;
8088;SDS011;57635;49.194;12.104;2023-07-13T04:07:32;7.83;;;7.03;;
8088;SDS011;57635;49.194;12.104;2023-07-13T04:10:00;12.90;;;8.40;;
8088;SDS011;57635;49.194;12.104;2023-07-13T04:12:28;9.60;;;8.43;;
8088;SDS011;57635;49.194;12.104;2023-07-13T04:14:57;9.67;;;7.70;;
8088;SDS011;57635;49.194;12.104;2023-07-13T04:17:25;13.03;;;7.50;;
8088;SDS011;57635;49.194;12.104;2023-07-13T04:19:53;8.87;;;7.97;;
8088;SDS011;57635;49.194;12.104;2023-07-13T04:22:20;12.33;;;8.10;;
8088;SDS011;57635;49.194;12.104;2023-07-13T04:24:48;13.27;;;7.70;;
8088;SDS011;57635;49.194;12.104;2023-07-13T04:27:16;12.17;;;8.03;;
8088;SDS011;57635;49.194;12.104;2023-07-13T04:29:43;9.57;;;8.23;;
8088;SDS011;57635;49.194;12.104;2023-07-13T04:32:12;12.37;;;7.80;;
8088;SDS011;57635;49.194;12.104;2023-07-13T04:34:40;11.83;;;8.90;;
8088;SDS011;57635;49.194;12.104;2023-07-13T04:37:07;11.13;;;7.80;;
8088;SDS011;57635;49.194;12.104;2023-07-13T04:39:35;11.70;;;9.23;;
8088;SDS011;57635;49.194;12.104;2023-07-13T04:42:03;9.60;;;8.30;;
8088;SDS011;57635;49.194;12.104;2023-07-13T04:44:31;11.23;;;8.10;;
8088;SDS011;57635;49.194;12.104;2023-07-13T04:46:59;7.57;;;6.87;;
8088;SDS011;57635;49.194;12.104;2023-07-13T04:49:28;9.13;;;6.40;;
8088;SDS011;57635;49.194;12.104;2023-07-13T04:51:56;7.67;;;7.00;;
8088;SDS011;57635;49.194;12.104;2023-07-13T04:54:24;8.67;;;6.97;;
8088;SDS011;57635;49.194;12.104;2023-07-13T04:56:51;8.47;;;6.00;;
8088;SDS011;57635;49.194;12.104;2023-07-13T04:59:19;6.97;;;6.30;;
8088;SDS011;57635;49.194;12.104;2023-07-13T05:01:47;7.20;;;6.00;;
8088;SDS011;57635;49.194;12.104;2023-07-13T05:04:14;6.90;;;6.30;;
8088;SDS011;57635;49.194;12.104;2023-07-13T05:06:43;8.17;;;5.87;;
8088;SDS011;57635;49.194;12.104;2023-07-13T05:09:11;9.90;;;5.37;;
8088;SDS011;57635;49.194;12.104;2023-07-13T05:11:39;7.40;;;5.90;;
8088;SDS011;57635;49.194;12.104;2023-07-13T05:14:07;5.50;;;5.10;;
8088;SDS011;57635;49.194;12.104;2023-07-13T05:16:35;5.57;;;4.80;;
8088;SDS011;57635;49.194;12.104;2023-07-13T05:19:03;9.17;;;5.50;;
8088;SDS011;57635;49.194;12.104;2023-07-13T05:21:31;5.33;;;4.93;;
8088;SDS011;57635;49.194;12.104;2023-07-13T05:24:00;11.13;;;4.80;;
8088;SDS011;57635;49.194;12.104;2023-07-13T05:26:47;6.63;;;5.20;;
8088;SDS011;57635;49.194;12.104;2023-07-13T05:29:15;6.40;;;5.33;;
8088;SDS011;57635;49.194;12.104;2023-07-13T05:31:42;7.97;;;5.37;;
8088;SDS011;57635;49.194;12.104;2023-07-13T05:34:10;7.37;;;4.93;;
8088;SDS011;57635;49.194;12.104;2023-07-13T05:36:38;5.17;;;4.70;;
8088;SDS011;57635;49.194;12.104;2023-07-13T05:39:07;6.23;;;4.30;;
8088;SDS011;57635;49.194;12.104;2023-07-13T05:41:35;5.87;;;4.50;;
8088;SDS011;57635;49.194;12.104;2023-07-13T05:44:03;17.30;;;12.17;;
8088;SDS011;57635;49.194;12.104;2023-07-13T05:46:30;6.43;;;5.90;;
8088;SDS011;57635;49.194;12.104;2023-07-13T05:48:58;3.90;;;3.70;;
8088;SDS011;57635;49.194;12.104;2023-07-13T05:51:26;5.97;;;4.27;;
8088;SDS011;57635;49.194;12.104;2023-07-13T05:53:53;4.53;;;3.93;;
8088;SDS011;57635;49.194;12.104;2023-07-13T05:56:22;4.30;;;3.20;;
8088;SDS011;57635;49.194;12.104;2023-07-13T05:58:51;3.97;;;3.67;;
8088;SDS011;57635;49.194;12.104;2023-07-13T06:01:19;3.73;;;3.53;;
8088;SDS011;57635;49.194;12.104;2023-07-13T06:03:48;3.80;;;3.37;;
8088;SDS011;57635;49.194;12.104;2023-07-13T06:06:16;4.13;;;3.33;;
8088;SDS011;57635;49.194;12.104;2023-07-13T06:08:44;6.13;;;3.50;;
8088;SDS011;57635;49.194;12.104;2023-07-13T06:11:13;4.27;;;3.43;;
8088;SDS011;57635;49.194;12.104;2023-07-13T06:13:43;3.17;;;3.00;;
8088;SDS011;57635;49.194;12.104;2023-07-13T06:16:11;5.20;;;4.10;;
8088;SDS011;57635;49.194;12.104;2023-07-13T06:18:39;3.80;;;3.50;;
8088;SDS011;57635;49.194;12.104;2023-07-13T06:21:08;3.27;;;2.97;;
8088;SDS011;57635;49.194;12.104;2023-07-13T06:23:36;3.70;;;3.10;;
8088;SDS011;57635;49.194;12.104;2023-07-13T06:26:04;2.80;;;2.60;;
8088;SDS011;57635;49.194;12.104;2023-07-13T06:28:32;3.63;;;2.60;;
8088;SDS011;57635;49.194;12.104;2023-07-13T06:31:02;5.03;;;3.10;;
8088;SDS011;57635;49.194;12.104;2023-07-13T06:33:32;3.20;;;3.00;;
8088;SDS011;57635;49.194;12.104;2023-07-13T06:36:00;3.90;;;3.60;;
8088;SDS011;57635;49.194;12.104;2023-07-13T06:38:28;3.17;;;2.97;;
8088;SDS011;57635;49.194;12.104;2023-07-13T06:40:56;3.80;;;3.50;;
8088;SDS011;57635;49.194;12.104;2023-07-13T06:43:23;2.77;;;2.63;;
8088;SDS011;57635;49.194;12.104;2023-07-13T06:45:54;3.10;;;2.73;;
8088;SDS011;57635;49.194;12.104;2023-07-13T06:48:23;2.83;;;2.67;;
8088;SDS011;57635;49.194;12.104;2023-07-13T06:50:51;3.97;;;3.57;;
8088;SDS011;57635;49.194;12.104;2023-07-13T06:53:19;2.90;;;2.67;;
8088;SDS011;57635;49.194;12.104;2023-07-13T06:55:48;3.07;;;2.87;;
8088;SDS011;57635;49.194;12.104;2023-07-13T06:58:16;4.03;;;2.90;;
8088;SDS011;57635;49.194;12.104;2023-07-13T07:00:44;4.03;;;3.10;;
8088;SDS011;57635;49.194;12.104;2023-07-13T07:03:13;2.30;;;2.20;;
8088;SDS011;57635;49.194;12.104;2023-07-13T07:05:42;2.43;;;2.20;;
8088;SDS011;57635;49.194;12.104;2023-07-13T07:08:09;3.00;;;2.40;;
8088;SDS011;57635;49.194;12.104;2023-07-13T07:10:37;2.83;;;2.63;;
8088;SDS011;57635;49.194;12.104;2023-07-13T07:13:05;2.43;;;2.23;;
8088;SDS011;57635;49.194;12.104;2023-07-13T07:15:32;2.90;;;2.70;;
8088;SDS011;57635;49.194;12.104;2023-07-13T07:18:01;2.73;;;2.53;;
8088;SDS011;57635;49.194;12.104;2023-07-13T07:20:29;4.00;;;2.80;;
8088;SDS011;57635;49.194;12.104;2023-07-13T07:22:58;2.80;;;2.60;;
8088;SDS011;57635;49.194;12.104;2023-07-13T07:25:26;2.20;;;2.10;;
8088;SDS011;57635;49.194;12.104;2023-07-13T07:27:57;1.90;;;1.80;;
8088;SDS011;57635;49.194;12.104;2023-07-13T07:30:28;2.73;;;2.53;;
8088;SDS011;57635;49.194;12.104;2023-07-13T07:32:59;3.50;;;2.30;;
8088;SDS011;57635;49.194;12.104;2023-07-13T07:35:31;2.60;;;1.70;;
8088;SDS011;57635;49.194;12.104;2023-07-13T07:38:05;2.47;;;1.80;;
8088;SDS011;57635;49.194;12.104;2023-07-13T07:40:36;3.53;;;1.80;;
8088;SDS011;57635;49.194;12.104;2023-07-13T07:43:07;1.97;;;1.87;;
8088;SDS011;57635;49.194;12.104;2023-07-13T07:45:34;3.60;;;2.20;;
8088;SDS011;57635;49.194;12.104;2023-07-13T07:48:03;2.30;;;2.20;;
8088;SDS011;57635;49.194;12.104;2023-07-13T07:50:31;1.97;;;1.87;;
8088;SDS011;57635;49.194;12.104;2023-07-13T07:52:59;1.73;;;1.63;;
8088;SDS011;57635;49.194;12.104;2023-07-13T07:55:29;4.67;;;2.73;;
8088;SDS011;57635;49.194;12.104;2023-07-13T07:58:00;1.70;;;1.60;;
8088;SDS011;57635;49.194;12.104;2023-07-13T08:00:32;2.03;;;1.67;;
8088;SDS011;57635;49.194;12.104;2023-07-13T08:03:19;2.17;;;1.87;;
8088;SDS011;57635;49.194;12.104;2023-07-13T08:05:52;1.50;;;1.40;;
8088;SDS011;57635;49.194;12.104;2023-07-13T08:08:22;2.03;;;1.80;;
8088;SDS011;57635;49.194;12.104;2023-07-13T08:10:52;3.40;;;1.80;;
8088;SDS011;57635;49.194;12.104;2023-07-13T08:13:24;2.03;;;1.83;;
8088;SDS011;57635;49.194;12.104;2023-07-13T08:15:52;2.53;;;1.87;;
8088;SDS011;57635;49.194;12.104;2023-07-13T08:18:20;2.63;;;1.83;;
8088;SDS011;57635;49.194;12.104;2023-07-13T08:20:47;2.30;;;1.90;;
8088;SDS011;57635;49.194;12.104;2023-07-13T08:23:15;2.33;;;2.20;;
8088;SDS011;57635;49.194;12.104;2023-07-13T08:25:49;2.23;;;2.10;;
8088;SDS011;57635;49.194;12.104;2023-07-13T08:28:19;2.37;;;1.77;;
8088;SDS011;57635;49.194;12.104;2023-07-13T08:30:47;1.80;;;1.70;;
8088;SDS011;57635;49.194;12.104;2023-07-13T08:33:15;2.80;;;1.90;;
8088;SDS011;57635;49.194;12.104;2023-07-13T08:35:45;1.90;;;1.80;;
8088;SDS011;57635;49.194;12.104;2023-07-13T08:38:12;5.20;;;2.10;;
8088;SDS011;57635;49.194;12.104;2023-07-13T08:40:40;1.97;;;1.77;;
8088;SDS011;57635;49.194;12.104;2023-07-13T08:43:12;4.57;;;4.23;;
8088;SDS011;57635;49.194;12.104;2023-07-13T08:45:43;3.13;;;2.33;;
8088;SDS011;57635;49.194;12.104;2023-07-13T08:48:14;2.10;;;1.60;;
8088;SDS011;57635;49.194;12.104;2023-07-13T08:50:47;1.77;;;1.60;;
8088;SDS011;57635;49.194;12.104;2023-07-13T08:53:29;2.00;;;1.60;;
8088;SDS011;57635;49.194;12.104;2023-07-13T08:56:17;2.33;;;1.70;;
8088;SDS011;57635;49.194;12.104;2023-07-13T08:58:48;1.80;;;1.70;;
8088;SDS011;57635;49.194;12.104;2023-07-13T09:01:22;2.70;;;2.00;;
8088;SDS011;57635;49.194;12.104;2023-07-13T09:03:56;2.43;;;1.70;;
8088;SDS011;57635;49.194;12.104;2023-07-13T09:06:27;3.37;;;2.10;;
8088;SDS011;57635;49.194;12.104;2023-07-13T09:09:01;1.60;;;1.50;;
8088;SDS011;57635;49.194;12.104;2023-07-13T09:11:35;1.80;;;1.70;;
8088;SDS011;57635;49.194;12.104;2023-07-13T09:14:13;3.63;;;1.83;;
8088;SDS011;57635;49.194;12.104;2023-07-13T09:16:58;3.97;;;2.03;;
8088;SDS011;57635;49.194;12.104;2023-07-13T09:19:28;2.83;;;1.73;;
8088;SDS011;57635;49.194;12.104;2023-07-13T09:21:59;1.67;;;1.57;;
8088;SDS011;57635;49.194;12.104;2023-07-13T09:24:29;1.63;;;1.53;;
8088;SDS011;57635;49.194;12.104;2023-07-13T09:27:03;1.73;;;1.63;;
8088;SDS011;57635;49.194;12.104;2023-07-13T09:29:38;1.43;;;1.30;;
8088;SDS011;57635;49.194;12.104;2023-07-13T09:32:10;3.60;;;2.93;;
8088;SDS011;57635;49.194;12.104;2023-07-13T09:34:39;3.73;;;1.73;;
8088;SDS011;57635;49.194;12.104;2023-07-13T09:37:07;2.23;;;1.60;;
8088;SDS011;57635;49.194;12.104;2023-07-13T09:39:35;1.60;;;1.50;;
8088;SDS011;57635;49.194;12.104;2023-07-13T09:42:07;1.53;;;1.40;;
8088;SDS011;57635;49.194;12.104;2023-07-13T09:44:44;2.80;;;2.13;;
8088;SDS011;57635;49.194;12.104;2023-07-13T09:47:19;4.23;;;1.97;;
8088;SDS011;57635;49.194;12.104;2023-07-13T09:49:53;2.77;;;1.90;;
8088;SDS011;57635;49.194;12.104;2023-07-13T09:52:24;1.57;;;1.30;;
8088;SDS011;57635;49.194;12.104;2023-07-13T09:54:53;2.23;;;1.60;;
8088;SDS011;57635;49.194;12.104;2023-07-13T09:57:25;4.00;;;1.80;;
8088;SDS011;57635;49.194;12.104;2023-07-13T10:00:20;3.03;;;2.43;;
8088;SDS011;57635;49.194;12.104;2023-07-13T10:02:57;4.63;;;2.73;;
8088;SDS011;57635;49.194;12.104;2023-07-13T10:05:27;1.47;;;1.30;;
8088;SDS011;57635;49.194;12.104;2023-07-13T10:07:55;3.30;;;1.30;;
8088;SDS011;57635;49.194;12.104;2023-07-13T10:10:23;2.17;;;1.70;;
8088;SDS011;57635;49.194;12.104;2023-07-13T10:12:50;5.03;;;1.90;;
8088;SDS011;57635;49.194;12.104;2023-07-13T10:15:20;2.90;;;1.70;;
8088;SDS011;57635;49.194;12.104;2023-07-13T10:17:50;2.13;;;1.90;;
8088;SDS011;57635;49.194;12.104;2023-07-13T10:20:19;1.93;;;1.83;;
8088;SDS011;57635;49.194;12.104;2023-07-13T10:22:49;3.07;;;1.83;;
8088;SDS011;57635;49.194;12.104;2023-07-13T10:25:20;2.43;;;1.80;;
8088;SDS011;57635;49.194;12.104;2023-07-13T10:27:50;2.87;;;1.37;;
8088;SDS011;57635;49.194;12.104;2023-07-13T10:30:21;3.13;;;1.77;;
8088;SDS011;57635;49.194;12.104;2023-07-13T10:32:51;1.77;;;1.60;;
8088;SDS011;57635;49.194;12.104;2023-07-13T10:35:20;1.40;;;1.30;;
8088;SDS011;57635;49.194;12.104;2023-07-13T10:37:49;4.63;;;1.70;;
8088;SDS011;57635;49.194;12.104;2023-07-13T10:40:26;1.90;;;1.80;;
8088;SDS011;57635;49.194;12.104;2023-07-13T10:42:56;2.90;;;1.60;;
8088;SDS011;57635;49.194;12.104;2023-07-13T10:45:26;1.30;;;1.27;;
8088;SDS011;57635;49.194;12.104;2023-07-13T10:48:00;1.47;;;1.37;;
8088;SDS011;57635;49.194;12.104;2023-07-13T10:50:29;3.60;;;1.83;;
8088;SDS011;57635;49.194;12.104;2023-07-13T10:53:00;2.63;;;1.83;;
8088;SDS011;57635;49.194;12.104;2023-07-13T10:55:36;2.87;;;1.50;;
8088;SDS011;57635;49.194;12.104;2023-07-13T10:58:14;2.53;;;1.57;;
8088;SDS011;57635;49.194;12.104;2023-07-13T11:00:46;2.13;;;1.57;;
8088;SDS011;57635;49.194;12.104;2023-07-13T11:03:16;2.10;;;1.57;;
8088;SDS011;57635;49.194;12.104;2023-07-13T11:05:47;1.90;;;1.50;;
8088;SDS011;57635;49.194;12.104;2023-07-13T11:08:19;1.47;;;1.37;;
8088;SDS011;57635;49.194;12.104;2023-07-13T11:10:50;1.47;;;1.37;;
8088;SDS011;57635;49.194;12.104;2023-07-13T11:16:35;1.83;;;1.73;;
8088;SDS011;57635;49.194;12.104;2023-07-13T11:22:13;1.20;;;1.10;;
8088;SDS011;57635;49.194;12.104;2023-07-13T11:24:49;2.90;;;1.47;;
8088;SDS011;57635;49.194;12.104;2023-07-13T11:27:21;3.33;;;1.60;;
8088;SDS011;57635;49.194;12.104;2023-07-13T11:29:52;2.50;;;1.57;;
8088;SDS011;57635;49.194;12.104;2023-07-13T11:32:23;1.10;;;1.10;;
8088;SDS011;57635;49.194;12.104;2023-07-13T11:34:53;3.90;;;1.60;;
8088;SDS011;57635;49.194;12.104;2023-07-13T11:37:21;2.60;;;1.63;;
8088;SDS011;57635;49.194;12.104;2023-07-13T11:39:49;1.57;;;1.43;;
8088;SDS011;57635;49.194;12.104;2023-07-13T11:42:18;1.50;;;1.03;;
8088;SDS011;57635;49.194;12.104;2023-07-13T11:44:48;1.73;;;1.63;;
8088;SDS011;57635;49.194;12.104;2023-07-13T11:47:39;1.60;;;1.10;;
8088;SDS011;57635;49.194;12.104;2023-07-13T11:50:16;1.50;;;1.40;;
8088;SDS011;57635;49.194;12.104;2023-07-13T11:52:45;1.80;;;1.20;;
8088;SDS011;57635;49.194;12.104;2023-07-13T11:55:15;1.50;;;1.40;;
8088;SDS011;57635;49.194;12.104;2023-07-13T11:57:45;1.40;;;1.30;;
8088;SDS011;57635;49.194;12.104;2023-07-13T12:00:15;1.20;;;1.13;;
8088;SDS011;57635;49.194;12.104;2023-07-13T12:02:47;1.57;;;1.47;;
8088;SDS011;57635;49.194;12.104;2023-07-13T12:05:18;3.03;;;1.37;;
8088;SDS011;57635;49.194;12.104;2023-07-13T12:07:47;1.57;;;1.23;;
8088;SDS011;57635;49.194;12.104;2023-07-13T12:10:19;2.13;;;1.13;;
8088;SDS011;57635;49.194;12.104;2023-07-13T12:12:51;1.87;;;1.53;;
8088;SDS011;57635;49.194;12.104;2023-07-13T12:15:20;1.80;;;1.30;;
8088;SDS011;57635;49.194;12.104;2023-07-13T12:17:49;1.70;;;1.43;;
8088;SDS011;57635;49.194;12.104;2023-07-13T12:20:19;1.43;;;1.33;;
8088;SDS011;57635;49.194;12.104;2023-07-13T12:22:48;2.73;;;1.50;;
8088;SDS011;57635;49.194;12.104;2023-07-13T12:25:17;1.73;;;1.30;;
8088;SDS011;57635;49.194;12.104;2023-07-13T12:27:46;2.00;;;1.67;;
8088;SDS011;57635;49.194;12.104;2023-07-13T12:30:24;2.20;;;1.30;;
8088;SDS011;57635;49.194;12.104;2023-07-13T12:33:00;1.50;;;1.40;;
8088;SDS011;57635;49.194;12.104;2023-07-13T12:35:29;1.50;;;1.40;;
8088;SDS011;57635;49.194;12.104;2023-07-13T12:38:01;1.60;;;1.30;;
8088;SDS011;57635;49.194;12.104;2023-07-13T12:40:31;1.47;;;1.37;;
8088;SDS011;57635;49.194;12.104;2023-07-13T12:43:02;1.83;;;1.50;;
8088;SDS011;57635;49.194;12.104;2023-07-13T12:45:33;1.77;;;1.60;;
8088;SDS011;57635;49.194;12.104;2023-07-13T12:48:04;1.30;;;1.20;;
8088;SDS011;57635;49.194;12.104;2023-07-13T12:50:39;1.67;;;1.57;;
8088;SDS011;57635;49.194;12.104;2023-07-13T12:53:11;1.83;;;1.63;;
8088;SDS011;57635;49.194;12.104;2023-07-13T12:55:41;1.47;;;1.37;;
8088;SDS011;57635;49.194;12.104;2023-07-13T12:58:13;1.57;;;1.47;;
8088;SDS011;57635;49.194;12.104;2023-07-13T13:00:48;1.77;;;1.30;;
8088;SDS011;57635;49.194;12.104;2023-07-13T13:03:23;1.80;;;1.17;;
8088;SDS011;57635;49.194;12.104;2023-07-13T13:06:00;1.87;;;1.53;;
8088;SDS011;57635;49.194;12.104;2023-07-13T13:08:29;1.20;;;1.00;;
8088;SDS011;57635;49.194;12.104;2023-07-13T13:10:57;1.40;;;1.30;;
8088;SDS011;57635;49.194;12.104;2023-07-13T13:13:25;2.93;;;1.27;;
8088;SDS011;57635;49.194;12.104;2023-07-13T13:15:53;1.43;;;1.33;;
8088;SDS011;57635;49.194;12.104;2023-07-13T13:18:22;1.37;;;1.27;;
8088;SDS011;57635;49.194;12.104;2023-07-13T13:20:51;3.80;;;2.20;;
8088;SDS011;57635;49.194;12.104;2023-07-13T13:23:19;2.20;;;1.43;;
8088;SDS011;57635;49.194;12.104;2023-07-13T13:25:49;1.93;;;1.60;;
8088;SDS011;57635;49.194;12.104;2023-07-13T13:28:18;1.40;;;1.23;;
8088;SDS011;57635;49.194;12.104;2023-07-13T13:30:47;1.63;;;1.00;;
8088;SDS011;57635;49.194;12.104;2023-07-13T13:33:17;1.67;;;1.10;;
8088;SDS011;57635;49.194;12.104;2023-07-13T13:35:47;2.73;;;1.33;;
8088;SDS011;57635;49.194;12.104;2023-07-13T13:38:16;2.50;;;1.50;;
8088;SDS011;57635;49.194;12.104;2023-07-13T13:40:45;2.47;;;1.47;;
8088;SDS011;57635;49.194;12.104;2023-07-13T13:43:16;1.37;;;1.30;;
8088;SDS011;57635;49.194;12.104;2023-07-13T13:45:45;1.60;;;1.50;;
8088;SDS011;57635;49.194;12.104;2023-07-13T13:48:16;1.10;;;1.10;;
8088;SDS011;57635;49.194;12.104;2023-07-13T13:50:45;1.33;;;1.23;;
8088;SDS011;57635;49.194;12.104;2023-07-13T13:53:14;1.70;;;1.60;;
8088;SDS011;57635;49.194;12.104;2023-07-13T13:55:42;2.23;;;2.03;;
8088;SDS011;57635;49.194;12.104;2023-07-13T13:58:10;2.30;;;1.63;;
8088;SDS011;57635;49.194;12.104;2023-07-13T14:00:38;1.63;;;1.47;;
8088;SDS011;57635;49.194;12.104;2023-07-13T14:03:08;1.47;;;1.37;;
8088;SDS011;57635;49.194;12.104;2023-07-13T14:05:41;1.83;;;1.73;;
8088;SDS011;57635;49.194;12.104;2023-07-13T14:08:11;2.03;;;1.70;;
8088;SDS011;57635;49.194;12.104;2023-07-13T14:10:41;1.90;;;1.20;;
8088;SDS011;57635;49.194;12.104;2023-07-13T14:13:14;4.27;;;1.40;;
8088;SDS011;57635;49.194;12.104;2023-07-13T14:15:44;1.93;;;1.60;;
8088;SDS011;57635;49.194;12.104;2023-07-13T14:18:12;1.80;;;1.67;;
8088;SDS011;57635;49.194;12.104;2023-07-13T14:20:44;2.60;;;1.70;;
8088;SDS011;57635;49.194;12.104;2023-07-13T14:23:12;2.10;;;2.00;;
8088;SDS011;57635;49.194;12.104;2023-07-13T14:25:41;2.20;;;1.77;;
8088;SDS011;57635;49.194;12.104;2023-07-13T14:28:15;2.97;;;1.73;;
8088;SDS011;57635;49.194;12.104;2023-07-13T14:30:47;3.03;;;1.77;;
8088;SDS011;57635;49.194;12.104;2023-07-13T14:33:15;1.80;;;1.70;;
8088;SDS011;57635;49.194;12.104;2023-07-13T14:35:42;1.30;;;1.17;;
8088;SDS011;57635;49.194;12.104;2023-07-13T14:38:11;4.40;;;1.70;;
8088;SDS011;57635;49.194;12.104;2023-07-13T14:40:42;1.57;;;1.47;;
8088;SDS011;57635;49.194;12.104;2023-07-13T14:43:10;1.67;;;1.53;;
8088;SDS011;57635;49.194;12.104;2023-07-13T14:45:39;2.80;;;1.20;;
8088;SDS011;57635;49.194;12.104;2023-07-13T14:48:13;2.10;;;1.90;;
8088;SDS011;57635;49.194;12.104;2023-07-13T14:50:43;1.53;;;1.43;;
8088;SDS011;57635;49.194;12.104;2023-07-13T14:53:10;3.80;;;1.60;;
8088;SDS011;57635;49.194;12.104;2023-07-13T14:55:39;2.43;;;1.40;;
8088;SDS011;57635;49.194;12.104;2023-07-13T14:58:10;2.63;;;1.47;;
8088;SDS011;57635;49.194;12.104;2023-07-13T15:00:37;1.67;;;1.53;;
8088;SDS011;57635;49.194;12.104;2023-07-13T15:03:05;2.77;;;1.80;;
8088;SDS011;57635;49.194;12.104;2023-07-13T15:05:33;1.37;;;1.20;;
8088;SDS011;57635;49.194;12.104;2023-07-13T15:08:01;3.37;;;1.53;;